Praia Lusitana — CUHX4 — position and weather

sailwx.info

Track history (hours):
 
Tides and Currents Weather Stations Pressure Air Temp Water Temp Dewpoint Dewpoint Depression Visibility Wind Speed Wind Dir Waves Ship Positions

Praia Lusitana

Last reported at 2017-Sep-14 17:37 UTC. Time now 2017-Sep-23 05:59 UTC.
Position N 39°09' W 009°27'.
Warning: this ship's position is 8 days out of date.

Length 18 m.

Type: Fishing. MMSI: 263413350.

Date/timePositionNaut miles runAvg speedWind from/ knotsBaromVisibWave heightAir tempDewpointWater temp
2017-Sep-14 17:37N 39°09' W 009°27'1 7.6
2017-Sep-14 17:29N 39°08' W 009°27'4 7.5
2017-Sep-14 17:00N 39°05' W 009°28'4 7.5
2017-Sep-14 16:30N 39°01' W 009°30'4 7.8
2017-Sep-14 16:00N 38°57' W 009°31'4 7.8
2017-Sep-14 15:30N 38°54' W 009°32'4 7.8
2017-Sep-14 15:00N 38°50' W 009°33'4 7.7
2017-Sep-14 14:30N 38°46' W 009°34'4 7.7
2017-Sep-14 14:00N 38°42' W 009°33'4 7.7
2017-Sep-14 13:30N 38°39' W 009°32'4 7.6
2017-Sep-14 13:00N 38°35' W 009°31'4 7.9
2017-Sep-14 12:30N 38°31' W 009°30'4 7.8
2017-Sep-14 12:00N 38°27' W 009°28'4 7.8
2017-Sep-14 11:30N 38°24' W 009°27'4 7.8
2017-Sep-14 10:58N 38°20' W 009°26'4 7.6
2017-Sep-14 10:30N 38°16' W 009°25'11 7.7
2017-Sep-14 09:07N 38°06' W 009°21'1 7.7
2017-Sep-14 09:00N 38°05' W 009°21'4 8.0
2017-Sep-14 08:30N 38°01' W 009°20'4 8.0
2017-Sep-14 08:00N 37°57' W 009°19'4 7.8
2017-Sep-14 07:30N 37°53' W 009°18'4 7.7
2017-Sep-14 06:55N 37°49' W 009°16'3 7.5
2017-Sep-14 06:30N 37°46' W 009°15'61 2.0
2017-Sep-12 23:23N 36°58' W 008°26'3 8.5
2017-Sep-12 23:00N 37°01' W 008°28'4 8.5
2017-Sep-12 22:30N 37°05' W 008°31'3 6.2
2017-Sep-12 22:00N 37°08' W 008°32'0 0.0
2017-Sep-12 21:30N 37°08' W 008°32'0 0.0
2017-Sep-12 21:00N 37°08' W 008°32'0 0.0
2017-Sep-12 20:29N 37°08' W 008°32'1 2.4
2017-Sep-12 20:00N 37°07' W 008°32'4 7.9
2017-Sep-12 19:30N 37°03' W 008°32'4 7.8
2017-Sep-12 18:57N 36°59' W 008°31'5 0.1
2017-Sep-11 03:38N 37°01' W 008°37'1 7.0
2017-Sep-11 03:26N 37°02' W 008°36'4 7.1
2017-Sep-11 02:56N 37°05' W 008°33'3 6.7
2017-Sep-11 02:29N 37°07' W 008°32'1 1.2
2017-Sep-11 02:00N 37°08' W 008°32'0 0.0
2017-Sep-11 01:30N 37°08' W 008°32'0 0.0
2017-Sep-11 00:58N 37°08' W 008°32'0 0.0
2017-Sep-11 00:24N 37°08' W 008°32'0 0.0
2017-Sep-11 00:00N 37°08' W 008°32'0 0.0
2017-Sep-10 23:30N 37°08' W 008°32'0 0.0
2017-Sep-10 22:56N 37°08' W 008°32'0 0.0
2017-Sep-10 22:30N 37°08' W 008°32'0 0.0
2017-Sep-10 21:58N 37°08' W 008°32'0 0.0
2017-Sep-10 21:29N 37°08' W 008°32'0 0.0
2017-Sep-10 20:59N 37°08' W 008°32'0 0.0
2017-Sep-10 20:20N 37°08' W 008°32'0 0.1
2017-Sep-10 20:00N 37°08' W 008°32'3 6.3
2017-Sep-10 19:30N 37°05' W 008°32'4 7.6
2017-Sep-10 19:00N 37°01' W 008°31'7 0.4
2017-Sep-10 01:34N 36°54' W 008°29'12 0.3
2017-Sep-08 13:19N 36°52' W 008°44'1 0.1
2017-Sep-08 09:12N 36°52' W 008°45'1 2.9
2017-Sep-08 08:59N 36°51' W 008°45'3 2.4
2017-Sep-08 07:52N 36°50' W 008°48'13 3.4
2017-Sep-08 03:52N 37°00' W 008°37'4 6.7
2017-Sep-08 03:17N 37°03' W 008°34'2 6.8
2017-Sep-08 03:00N 37°05' W 008°33'3 5.8
2017-Sep-08 02:29N 37°08' W 008°32'0 0.4
2017-Sep-08 01:51N 37°08' W 008°32'0 0.0
2017-Sep-08 01:30N 37°08' W 008°32'0 0.0
2017-Sep-08 00:59N 37°08' W 008°32'0 0.0
2017-Sep-08 00:29N 37°08' W 008°32'0 0.0
2017-Sep-07 22:56N 37°08' W 008°32'0 0.0
2017-Sep-07 22:27N 37°08' W 008°32'0 0.0
2017-Sep-07 20:56N 37°08' W 008°32'0 0.0
2017-Sep-07 20:24N 37°08' W 008°32'0 0.0
2017-Sep-07 20:00N 37°08' W 008°32'2 5.0
2017-Sep-07 19:31N 37°06' W 008°32'4 8.1
2017-Sep-07 19:01N 37°02' W 008°35'4 7.9
2017-Sep-07 18:30N 36°59' W 008°38'4 7.9
2017-Sep-07 18:00N 36°56' W 008°41'7 1.3
2017-Sep-07 13:09N 36°50' W 008°46'0 3.3
2017-Sep-07 13:00N 36°50' W 008°46'2 3.1
2017-Sep-07 12:30N 36°50' W 008°48'3 1.0
2017-Sep-07 09:47N 36°51' W 008°45'1 3.0
2017-Sep-07 09:30N 36°50' W 008°45'1 0.0
2017-Sep-06 10:04N 36°51' W 008°45'0 2.8
2017-Sep-06 10:00N 36°51' W 008°45'12 2.0
2017-Sep-06 03:57N 37°01' W 008°36'3 6.5
2017-Sep-06 03:30N 37°04' W 008°34'3 6.6
2017-Sep-06 03:00N 37°06' W 008°32'2 3.6
2017-Sep-06 02:30N 37°08' W 008°32'0 0.0
2017-Sep-06 02:00N 37°08' W 008°32'0 0.0
2017-Sep-06 01:30N 37°08' W 008°32'0 0.0
2017-Sep-06 01:00N 37°08' W 008°32'0 0.0
2017-Sep-06 00:30N 37°08' W 008°32'0 0.0
2017-Sep-06 00:00N 37°08' W 008°32'0 0.0
2017-Sep-05 23:30N 37°08' W 008°32'0 0.0
2017-Sep-05 22:23N 37°08' W 008°32'0 0.0
2017-Sep-05 22:00N 37°08' W 008°32'0 0.0
2017-Sep-05 21:30N 37°08' W 008°32'0 0.1
2017-Sep-05 20:55N 37°08' W 008°32'0 0.5
2017-Sep-05 20:30N 37°08' W 008°32'4 8.1
2017-Sep-05 20:00N 37°04' W 008°32'  
Track history (hours):
 
Tides and Currents Weather Stations Pressure Air Temp Water Temp Dewpoint Dewpoint Depression Visibility Wind Speed Wind Dir Waves Ship Positions

Praia Lusitana

Last reported at 2017-Sep-14 17:37 UTC. Time now 2017-Sep-23 05:59 UTC.
Position N 39°09' W 009°27'.
Warning: this ship's position is 8 days out of date.

Length 18 m.

Type: Fishing. MMSI: 263413350.

Date/timePositionNaut miles runAvg speedWind from/ knotsBaromVisibWave heightAir tempDewpointWater temp
2017-Sep-14 17:37N 39°09' W 009°27'1 7.6
2017-Sep-14 17:29N 39°08' W 009°27'4 7.5
2017-Sep-14 17:00N 39°05' W 009°28'4 7.5
2017-Sep-14 16:30N 39°01' W 009°30'4 7.8
2017-Sep-14 16:00N 38°57' W 009°31'4 7.8
2017-Sep-14 15:30N 38°54' W 009°32'4 7.8
2017-Sep-14 15:00N 38°50' W 009°33'4 7.7
2017-Sep-14 14:30N 38°46' W 009°34'4 7.7
2017-Sep-14 14:00N 38°42' W 009°33'4 7.7
2017-Sep-14 13:30N 38°39' W 009°32'4 7.6
2017-Sep-14 13:00N 38°35' W 009°31'4 7.9
2017-Sep-14 12:30N 38°31' W 009°30'4 7.8
2017-Sep-14 12:00N 38°27' W 009°28'4 7.8
2017-Sep-14 11:30N 38°24' W 009°27'4 7.8
2017-Sep-14 10:58N 38°20' W 009°26'4 7.6
2017-Sep-14 10:30N 38°16' W 009°25'11 7.7
2017-Sep-14 09:07N 38°06' W 009°21'1 7.7
2017-Sep-14 09:00N 38°05' W 009°21'4 8.0
2017-Sep-14 08:30N 38°01' W 009°20'4 8.0
2017-Sep-14 08:00N 37°57' W 009°19'4 7.8
2017-Sep-14 07:30N 37°53' W 009°18'4 7.7
2017-Sep-14 06:55N 37°49' W 009°16'3 7.5
2017-Sep-14 06:30N 37°46' W 009°15'61 2.0
2017-Sep-12 23:23N 36°58' W 008°26'3 8.5
2017-Sep-12 23:00N 37°01' W 008°28'4 8.5
2017-Sep-12 22:30N 37°05' W 008°31'3 6.2
2017-Sep-12 22:00N 37°08' W 008°32'0 0.0
2017-Sep-12 21:30N 37°08' W 008°32'0 0.0
2017-Sep-12 21:00N 37°08' W 008°32'0 0.0
2017-Sep-12 20:29N 37°08' W 008°32'1 2.4
2017-Sep-12 20:00N 37°07' W 008°32'4 7.9
2017-Sep-12 19:30N 37°03' W 008°32'4 7.8
2017-Sep-12 18:57N 36°59' W 008°31'5 0.1
2017-Sep-11 03:38N 37°01' W 008°37'1 7.0
2017-Sep-11 03:26N 37°02' W 008°36'4 7.1
2017-Sep-11 02:56N 37°05' W 008°33'3 6.7
2017-Sep-11 02:29N 37°07' W 008°32'1 1.2
2017-Sep-11 02:00N 37°08' W 008°32'0 0.0
2017-Sep-11 01:30N 37°08' W 008°32'0 0.0
2017-Sep-11 00:58N 37°08' W 008°32'0 0.0
2017-Sep-11 00:24N 37°08' W 008°32'0 0.0
2017-Sep-11 00:00N 37°08' W 008°32'0 0.0
2017-Sep-10 23:30N 37°08' W 008°32'0 0.0
2017-Sep-10 22:56N 37°08' W 008°32'0 0.0
2017-Sep-10 22:30N 37°08' W 008°32'0 0.0
2017-Sep-10 21:58N 37°08' W 008°32'0 0.0
2017-Sep-10 21:29N 37°08' W 008°32'0 0.0
2017-Sep-10 20:59N 37°08' W 008°32'0 0.0
2017-Sep-10 20:20N 37°08' W 008°32'0 0.1
2017-Sep-10 20:00N 37°08' W 008°32'3 6.3
2017-Sep-10 19:30N 37°05' W 008°32'4 7.6
2017-Sep-10 19:00N 37°01' W 008°31'7 0.4
2017-Sep-10 01:34N 36°54' W 008°29'12 0.3
2017-Sep-08 13:19N 36°52' W 008°44'1 0.1
2017-Sep-08 09:12N 36°52' W 008°45'1 2.9
2017-Sep-08 08:59N 36°51' W 008°45'3 2.4
2017-Sep-08 07:52N 36°50' W 008°48'13 3.4
2017-Sep-08 03:52N 37°00' W 008°37'4 6.7
2017-Sep-08 03:17N 37°03' W 008°34'2 6.8
2017-Sep-08 03:00N 37°05' W 008°33'3 5.8
2017-Sep-08 02:29N 37°08' W 008°32'0 0.4
2017-Sep-08 01:51N 37°08' W 008°32'0 0.0
2017-Sep-08 01:30N 37°08' W 008°32'0 0.0
2017-Sep-08 00:59N 37°08' W 008°32'0 0.0
2017-Sep-08 00:29N 37°08' W 008°32'0 0.0
2017-Sep-07 22:56N 37°08' W 008°32'0 0.0
2017-Sep-07 22:27N 37°08' W 008°32'0 0.0
2017-Sep-07 20:56N 37°08' W 008°32'0 0.0
2017-Sep-07 20:24N 37°08' W 008°32'0 0.0
2017-Sep-07 20:00N 37°08' W 008°32'2 5.0
2017-Sep-07 19:31N 37°06' W 008°32'4 8.1
2017-Sep-07 19:01N 37°02' W 008°35'4 7.9
2017-Sep-07 18:30N 36°59' W 008°38'4 7.9
2017-Sep-07 18:00N 36°56' W 008°41'7 1.3
2017-Sep-07 13:09N 36°50' W 008°46'0 3.3
2017-Sep-07 13:00N 36°50' W 008°46'2 3.1
2017-Sep-07 12:30N 36°50' W 008°48'3 1.0
2017-Sep-07 09:47N 36°51' W 008°45'1 3.0
2017-Sep-07 09:30N 36°50' W 008°45'1 0.0
2017-Sep-06 10:04N 36°51' W 008°45'0 2.8
2017-Sep-06 10:00N 36°51' W 008°45'12 2.0
2017-Sep-06 03:57N 37°01' W 008°36'3 6.5
2017-Sep-06 03:30N 37°04' W 008°34'3 6.6
2017-Sep-06 03:00N 37°06' W 008°32'2 3.6
2017-Sep-06 02:30N 37°08' W 008°32'0 0.0
2017-Sep-06 02:00N 37°08' W 008°32'0 0.0
2017-Sep-06 01:30N 37°08' W 008°32'0 0.0
2017-Sep-06 01:00N 37°08' W 008°32'0 0.0
2017-Sep-06 00:30N 37°08' W 008°32'0 0.0
2017-Sep-06 00:00N 37°08' W 008°32'0 0.0
2017-Sep-05 23:30N 37°08' W 008°32'0 0.0
2017-Sep-05 22:23N 37°08' W 008°32'0 0.0
2017-Sep-05 22:00N 37°08' W 008°32'0 0.0
2017-Sep-05 21:30N 37°08' W 008°32'0 0.1
2017-Sep-05 20:55N 37°08' W 008°32'0 0.5
2017-Sep-05 20:30N 37°08' W 008°32'4 8.1
2017-Sep-05 20:00N 37°04' W 008°32'  

Dump ship's entire track history